createdAt,value
2019-05-10T00:00:12.158Z,8.17
2019-05-10T00:02:58.405Z,8.63
2019-05-10T00:05:45.398Z,8.93
2019-05-10T00:08:30.183Z,8.83
2019-05-10T00:11:05.366Z,7.33
2019-05-10T00:13:35.083Z,7.33
2019-05-10T00:16:01.705Z,7.33
2019-05-10T00:18:28.081Z,8.00
2019-05-10T00:20:54.706Z,7.27
2019-05-10T00:23:21.137Z,6.63
2019-05-10T00:25:47.543Z,6.93
2019-05-10T00:28:13.929Z,6.37
2019-05-10T00:30:40.357Z,5.87
2019-05-10T00:33:06.911Z,6.40
2019-05-10T00:35:33.542Z,5.77
2019-05-10T00:38:00.018Z,6.30
2019-05-10T00:40:26.492Z,5.93
2019-05-10T00:42:52.799Z,5.73
2019-05-10T00:45:19.479Z,5.60
2019-05-10T00:47:46.012Z,5.33
2019-05-10T00:50:12.714Z,5.50
2019-05-10T00:52:39.027Z,5.80
2019-05-10T00:55:17.862Z,5.60
2019-05-10T00:57:34.177Z,5.40
2019-05-10T01:00:00.609Z,5.40
2019-05-10T01:02:27.199Z,5.40
2019-05-10T01:04:53.587Z,5.37
2019-05-10T01:07:20.144Z,5.77
2019-05-10T01:09:46.545Z,5.30
2019-05-10T01:12:13.067Z,4.83
2019-05-10T01:14:39.462Z,5.87
2019-05-10T01:17:05.760Z,5.50
2019-05-10T01:19:32.263Z,5.37
2019-05-10T01:21:58.734Z,5.13
2019-05-10T01:24:25.228Z,5.50
2019-05-10T01:26:51.692Z,4.70
2019-05-10T01:29:18.110Z,5.37
2019-05-10T01:31:44.488Z,5.00
2019-05-10T01:34:10.890Z,5.17
2019-05-10T01:36:37.276Z,5.10
2019-05-10T01:39:04.889Z,4.90
2019-05-10T01:41:31.201Z,5.53
2019-05-10T01:43:57.737Z,5.63
2019-05-10T01:46:24.374Z,5.70
2019-05-10T01:48:50.826Z,5.77
2019-05-10T01:51:17.313Z,5.20
2019-05-10T01:53:43.727Z,5.10
2019-05-10T01:56:10.149Z,5.10
2019-05-10T01:58:36.977Z,5.57
2019-05-10T02:01:03.488Z,5.27
2019-05-10T02:03:30.091Z,5.20
2019-05-10T02:05:56.697Z,5.50
2019-05-10T02:08:23.147Z,5.23
2019-05-10T02:10:49.577Z,5.43
2019-05-10T02:13:15.972Z,5.27
2019-05-10T02:15:42.552Z,5.10
2019-05-10T02:18:09.296Z,4.53
2019-05-10T02:20:35.717Z,5.10
2019-05-10T02:23:02.125Z,5.00
2019-05-10T02:25:28.637Z,4.97
2019-05-10T02:27:55.024Z,5.37
2019-05-10T02:30:21.654Z,4.80
2019-05-10T02:32:48.240Z,4.87
2019-05-10T02:35:14.855Z,4.90
2019-05-10T02:37:41.344Z,5.37
2019-05-10T02:40:08.376Z,4.80
2019-05-10T02:42:34.843Z,5.57
2019-05-10T02:45:02.777Z,5.40
2019-05-10T02:47:29.117Z,5.77
2019-05-10T02:49:58.967Z,5.23
2019-05-10T02:52:24.038Z,6.03
2019-05-10T02:54:50.952Z,5.73
2019-05-10T02:57:19.351Z,5.77
2019-05-10T02:59:47.576Z,6.20
2019-05-10T03:02:16.272Z,5.63
2019-05-10T03:04:45.296Z,5.93
2019-05-10T03:07:13.535Z,5.60
2019-05-10T03:09:43.215Z,5.80
2019-05-10T03:12:20.970Z,5.50
2019-05-10T03:14:52.162Z,5.00
2019-05-10T03:17:19.098Z,5.70
2019-05-10T03:19:49.383Z,5.43
2019-05-10T03:22:17.310Z,5.53
2019-05-10T03:24:43.924Z,5.73
2019-05-10T03:27:10.438Z,5.90
2019-05-10T03:29:37.010Z,5.90
2019-05-10T03:32:03.425Z,5.83
2019-05-10T03:34:30.041Z,5.97
2019-05-10T03:36:56.641Z,6.13
2019-05-10T03:39:23.080Z,5.93
2019-05-10T03:41:49.575Z,5.70
2019-05-10T03:44:15.984Z,5.60
2019-05-10T03:46:42.349Z,5.60
2019-05-10T03:49:08.854Z,6.00
2019-05-10T03:51:35.144Z,6.10
2019-05-10T03:54:01.599Z,5.90
2019-05-10T03:56:29.964Z,6.00
2019-05-10T03:58:56.411Z,6.03
2019-05-10T04:01:22.907Z,5.90
2019-05-10T04:03:49.306Z,5.83
2019-05-10T04:06:15.921Z,6.37
2019-05-10T04:08:42.477Z,6.23
2019-05-10T04:11:08.815Z,6.77
2019-05-10T04:13:35.245Z,6.60
2019-05-10T04:16:01.617Z,6.63
2019-05-10T04:18:28.083Z,6.87
2019-05-10T04:20:54.439Z,6.03
2019-05-10T04:23:20.934Z,6.53
2019-05-10T04:25:47.336Z,6.43
2019-05-10T04:28:13.765Z,6.37
2019-05-10T04:30:40.032Z,6.47
2019-05-10T04:33:06.658Z,6.83
2019-05-10T04:35:33.076Z,6.73
2019-05-10T04:37:59.467Z,7.00
2019-05-10T04:40:25.867Z,6.50
2019-05-10T04:42:52.273Z,6.60
2019-05-10T04:45:18.807Z,6.90
2019-05-10T04:47:45.074Z,6.90
2019-05-10T04:50:11.685Z,7.23
2019-05-10T04:52:38.070Z,7.33
2019-05-10T04:55:05.808Z,7.57
2019-05-10T04:57:49.309Z,7.37
2019-05-10T05:00:00.661Z,7.27
2019-05-10T05:02:27.289Z,7.20
2019-05-10T05:04:53.974Z,7.43
2019-05-10T05:07:20.429Z,8.23
2019-05-10T05:09:46.879Z,9.27
2019-05-10T05:12:13.357Z,8.73
2019-05-10T05:14:39.865Z,9.23
2019-05-10T05:17:06.815Z,9.77
2019-05-10T05:19:33.117Z,10.97
2019-05-10T05:21:59.618Z,12.67
2019-05-10T05:24:27.032Z,14.63
2019-05-10T05:26:53.607Z,14.60
2019-05-10T05:29:20.154Z,16.00
2019-05-10T05:31:46.550Z,16.77
2019-05-10T05:34:12.927Z,16.43
2019-05-10T05:36:39.632Z,17.27
2019-05-10T05:39:07.387Z,17.80
2019-05-10T05:41:47.836Z,18.10
2019-05-10T05:44:02.351Z,18.37
2019-05-10T05:46:28.882Z,19.17
2019-05-10T05:48:55.402Z,18.97
2019-05-10T05:51:21.924Z,18.97
2019-05-10T05:53:48.290Z,20.37
2019-05-10T05:56:14.981Z,19.43
2019-05-10T05:58:44.813Z,19.90
2019-05-10T06:01:09.876Z,19.73
2019-05-10T06:03:36.165Z,20.73
2019-05-10T06:06:15.309Z,19.67
2019-05-10T06:08:31.340Z,21.03
2019-05-10T06:11:00.045Z,21.33
2019-05-10T06:13:30.482Z,21.60
2019-05-10T06:15:54.529Z,20.60
2019-05-10T06:18:20.918Z,21.87
2019-05-10T06:20:47.340Z,22.13
2019-05-10T06:23:13.867Z,22.27
2019-05-10T06:25:42.606Z,20.63
2019-05-10T06:28:25.107Z,20.70
2019-05-10T06:30:37.062Z,20.90
2019-05-10T06:33:12.639Z,22.30
2019-05-10T06:35:32.160Z,23.70
2019-05-10T06:37:58.731Z,21.97
2019-05-10T06:40:34.309Z,22.43
2019-05-10T06:42:53.849Z,22.90
2019-05-10T06:45:20.398Z,21.97
2019-05-10T06:47:49.659Z,23.80
2019-05-10T06:50:15.815Z,25.87
2019-05-10T06:52:42.126Z,25.73
2019-05-10T06:55:08.799Z,25.23
2019-05-10T06:57:35.421Z,24.97
2019-05-10T07:00:07.904Z,26.67
2019-05-10T07:02:34.806Z,24.17
2019-05-10T07:05:01.440Z,24.73
2019-05-10T07:07:43.403Z,24.70
2019-05-10T07:10:12.284Z,23.77
2019-05-10T07:12:24.411Z,25.83
2019-05-10T07:14:50.680Z,25.27
2019-05-10T07:17:17.007Z,25.90
2019-05-10T07:19:53.058Z,24.77
2019-05-10T07:22:11.734Z,24.70
2019-05-10T07:24:38.362Z,23.37
2019-05-10T07:27:05.818Z,22.27
2019-05-10T07:29:42.131Z,21.20
2019-05-10T07:32:00.806Z,22.37
2019-05-10T07:34:27.224Z,20.40
2019-05-10T07:36:53.766Z,21.07
2019-05-10T07:39:20.405Z,19.60
2019-05-10T07:41:46.829Z,20.33
2019-05-10T07:44:13.269Z,20.57
2019-05-10T07:46:45.693Z,18.10
2019-05-10T07:49:08.141Z,17.43
2019-05-10T07:51:34.452Z,17.83
2019-05-10T07:54:04.661Z,17.23
2019-05-10T07:56:29.168Z,17.67
2019-05-10T07:58:55.679Z,17.93
2019-05-10T08:01:31.855Z,16.07
2019-05-10T08:03:52.434Z,13.83
2019-05-10T08:06:19.347Z,13.03
2019-05-10T08:08:45.734Z,9.83
2019-05-10T08:11:12.355Z,9.50
2019-05-10T08:13:39.371Z,9.23
2019-05-10T08:16:11.806Z,9.90
2019-05-10T08:18:34.543Z,10.33
2019-05-10T08:21:03.354Z,10.23
2019-05-10T08:23:29.331Z,10.67
2019-05-10T08:25:55.770Z,11.53
2019-05-10T08:28:22.821Z,11.20
2019-05-10T08:30:57.316Z,10.97
2019-05-10T08:33:18.051Z,10.40
2019-05-10T08:35:46.448Z,10.30
2019-05-10T08:38:13.083Z,9.63
2019-05-10T08:40:39.805Z,9.70
2019-05-10T08:43:08.983Z,9.97
2019-05-10T08:45:38.857Z,8.00
2019-05-10T08:48:06.831Z,8.03
2019-05-10T08:50:48.910Z,8.07
2019-05-10T08:53:02.309Z,7.27
2019-05-10T08:55:29.074Z,7.80
2019-05-10T08:57:55.529Z,8.33
2019-05-10T09:00:40.252Z,9.10
2019-05-10T09:02:52.072Z,9.63
2019-05-10T09:05:20.999Z,9.37
2019-05-10T09:07:47.234Z,10.10
2019-05-10T09:10:14.633Z,8.53
2019-05-10T09:12:50.586Z,8.23
2019-05-10T09:15:13.159Z,6.80
2019-05-10T09:17:38.510Z,7.47
2019-05-10T09:20:11.941Z,6.43
2019-05-10T09:22:38.540Z,7.90
2019-05-10T09:25:05.400Z,6.80
2019-05-10T09:27:33.437Z,6.90
2019-05-10T09:30:02.602Z,6.63
2019-05-10T09:32:29.389Z,5.80
2019-05-10T09:34:59.876Z,6.30
2019-05-10T09:37:25.020Z,7.07
2019-05-10T09:39:55.337Z,6.90
2019-05-10T09:42:26.470Z,7.33
2019-05-10T09:44:48.074Z,6.77
2019-05-10T09:47:14.495Z,5.10
2019-05-10T09:49:45.171Z,5.00
2019-05-10T09:52:12.786Z,3.30
2019-05-10T09:54:38.174Z,3.13
2019-05-10T09:57:04.671Z,3.37
2019-05-10T09:59:31.331Z,3.57
2019-05-10T10:01:57.844Z,3.40
2019-05-10T10:04:24.455Z,3.87
2019-05-10T10:06:52.653Z,4.00
2019-05-10T10:09:19.158Z,4.10
2019-05-10T10:11:57.241Z,3.93
2019-05-10T10:14:13.975Z,3.67
2019-05-10T10:16:40.447Z,4.20
2019-05-10T10:19:07.301Z,3.77
2019-05-10T10:21:35.472Z,4.03
2019-05-10T10:24:12.687Z,6.13
2019-05-10T10:26:31.075Z,4.20
2019-05-10T10:29:00.108Z,3.80
2019-05-10T10:31:30.404Z,3.80
2019-05-10T10:33:57.979Z,4.00
2019-05-10T10:36:22.740Z,3.90
2019-05-10T10:38:49.849Z,3.30
2019-05-10T10:41:25.706Z,3.47
2019-05-10T10:43:44.821Z,2.67
2019-05-10T10:46:12.511Z,2.73
2019-05-10T10:48:43.581Z,2.70
2019-05-10T10:51:08.190Z,2.60
2019-05-10T10:53:34.706Z,3.03
2019-05-10T10:56:03.795Z,3.00
2019-05-10T10:58:29.849Z,3.10
2019-05-10T11:00:56.381Z,2.97
2019-05-10T11:03:24.104Z,3.37
2019-05-10T11:05:51.396Z,3.17
2019-05-10T11:08:17.905Z,3.17
2019-05-10T11:10:44.469Z,3.40
2019-05-10T11:13:18.062Z,3.43
2019-05-10T11:15:41.807Z,3.17
2019-05-10T11:18:07.664Z,2.97
2019-05-10T11:20:34.223Z,3.47
2019-05-10T11:23:00.836Z,3.50
2019-05-10T11:25:27.437Z,3.77
2019-05-10T11:27:58.372Z,4.10
2019-05-10T11:30:22.329Z,3.63
2019-05-10T11:32:48.969Z,3.83
2019-05-10T11:35:22.731Z,3.87
2019-05-10T11:37:45.660Z,4.20
2019-05-10T11:40:18.126Z,3.73
2019-05-10T11:42:47.242Z,3.70
2019-05-10T11:45:11.857Z,3.87
2019-05-10T11:47:40.744Z,3.70
2019-05-10T11:50:07.795Z,3.93
2019-05-10T11:52:36.342Z,3.40
2019-05-10T11:55:03.660Z,4.00
2019-05-10T11:57:32.867Z,3.50
2019-05-10T11:59:58.771Z,3.80
2019-05-10T12:04:53.653Z,4.20
2019-05-10T12:07:24.551Z,3.87
2019-05-10T12:09:53.324Z,3.83
2019-05-10T12:12:16.974Z,4.27
2019-05-10T12:14:46.538Z,4.53
2019-05-10T12:17:14.253Z,4.53
2019-05-10T12:19:47.787Z,4.77
2019-05-10T12:22:08.694Z,4.37
2019-05-10T12:24:52.513Z,4.63
2019-05-10T12:26:03.777Z,3.70
2019-05-10T12:27:17.307Z,4.13
2019-05-10T12:29:32.176Z,4.20
2019-05-10T12:31:59.155Z,4.80
2019-05-10T12:34:25.976Z,4.07
2019-05-10T12:36:52.616Z,4.80
2019-05-10T12:39:21.279Z,4.40
2019-05-10T12:41:49.748Z,4.60
2019-05-10T12:44:15.950Z,5.23
2019-05-10T12:46:42.455Z,5.07
2019-05-10T12:49:12.011Z,6.00
2019-05-10T12:51:38.171Z,6.33
2019-05-10T12:54:04.855Z,6.07
2019-05-10T12:56:34.847Z,6.10
2019-05-10T12:59:00.106Z,6.80
2019-05-10T13:01:31.740Z,6.70
2019-05-10T13:03:55.193Z,7.20
2019-05-10T13:06:21.670Z,6.87
2019-05-10T13:08:48.225Z,7.87
2019-05-10T13:11:18.863Z,8.37
2019-05-10T13:13:43.531Z,10.07
2019-05-10T13:16:11.941Z,9.40
2019-05-10T13:18:50.540Z,10.00
2019-05-10T13:21:13.189Z,9.60
2019-05-10T13:23:36.003Z,8.90
2019-05-10T13:26:02.753Z,9.17
2019-05-10T13:28:29.311Z,8.57
2019-05-10T13:30:59.709Z,10.30
2019-05-10T13:33:28.931Z,9.47
2019-05-10T13:35:56.459Z,9.90
2019-05-10T13:38:21.429Z,9.83
2019-05-10T13:40:48.073Z,9.33
2019-05-10T13:43:17.389Z,9.70
2019-05-10T13:45:43.391Z,8.13
2019-05-10T13:48:10.015Z,8.37
2019-05-10T13:50:36.683Z,8.50
2019-05-10T13:53:03.496Z,7.73
2019-05-10T13:55:29.866Z,8.60
2019-05-10T13:57:56.456Z,7.50
2019-05-10T14:00:33.128Z,7.87
2019-05-10T14:02:52.480Z,7.97
2019-05-10T14:05:19.972Z,7.73
2019-05-10T14:07:52.143Z,7.40
2019-05-10T14:10:18.153Z,8.83
2019-05-10T14:12:43.942Z,8.30
2019-05-10T14:15:13.594Z,8.93
2019-05-10T14:17:38.996Z,7.90
2019-05-10T14:20:07.954Z,8.23
2019-05-10T14:22:35.781Z,7.80
2019-05-10T14:25:07.237Z,10.30
2019-05-10T14:27:36.032Z,9.27
2019-05-10T14:30:07.373Z,8.20
2019-05-10T14:32:33.217Z,9.57
2019-05-10T14:34:59.686Z,9.90
2019-05-10T14:37:26.135Z,7.97
2019-05-10T14:39:52.867Z,9.40
2019-05-10T14:42:24.193Z,8.30
2019-05-10T14:44:48.195Z,8.37
2019-05-10T14:47:14.850Z,8.27
2019-05-10T14:49:47.004Z,7.67
2019-05-10T14:52:10.226Z,7.73
2019-05-10T14:54:43.893Z,7.43
2019-05-10T14:57:05.157Z,8.83
2019-05-10T14:59:31.705Z,7.77
2019-05-10T15:01:58.361Z,6.93
2019-05-10T15:06:53.371Z,7.27
2019-05-10T15:09:23.854Z,6.97
2019-05-10T15:11:48.316Z,7.23
2019-05-10T15:14:14.835Z,7.90
2019-05-10T15:16:41.363Z,6.93
2019-05-10T15:19:08.141Z,6.97
2019-05-10T15:21:34.850Z,7.27
2019-05-10T15:24:03.074Z,7.27
2019-05-10T15:26:29.966Z,5.43
2019-05-10T15:28:56.613Z,4.70
2019-05-10T15:31:23.760Z,3.67
2019-05-10T15:33:51.765Z,3.87
2019-05-10T15:36:18.412Z,3.63
2019-05-10T15:38:50.779Z,3.77
2019-05-10T15:41:17.115Z,4.10
2019-05-10T15:43:42.096Z,4.20
2019-05-10T15:46:08.822Z,4.50
2019-05-10T15:48:36.496Z,4.20
2019-05-10T15:51:04.057Z,4.40
2019-05-10T15:53:31.291Z,4.20
2019-05-10T15:55:58.964Z,3.60
2019-05-10T15:58:30.719Z,3.73
2019-05-10T16:00:55.217Z,3.40
2019-05-10T16:03:22.015Z,3.40
2019-05-10T16:05:59.870Z,3.20
2019-05-10T16:08:17.695Z,3.80
2019-05-10T16:10:50.932Z,3.23
2019-05-10T16:13:23.391Z,3.33
2019-05-10T16:15:46.391Z,3.30
2019-05-10T16:18:13.057Z,3.00
2019-05-10T16:21:27.628Z,2.90
2019-05-10T16:23:54.287Z,2.90
2019-05-10T16:26:23.038Z,2.77
2019-05-10T16:28:53.129Z,2.73
2019-05-10T16:31:35.273Z,2.83
2019-05-10T16:34:01.938Z,2.77
2019-05-10T16:36:30.115Z,2.80
2019-05-10T16:39:01.119Z,2.53
2019-05-10T16:41:27.017Z,2.30
2019-05-10T16:43:57.832Z,2.00
2019-05-10T16:46:22.567Z,2.13
2019-05-10T16:48:49.287Z,2.20
2019-05-10T16:51:15.925Z,2.40
2019-05-10T16:53:43.670Z,2.20
2019-05-10T16:56:13.415Z,2.30
2019-05-10T16:58:39.853Z,2.50
2019-05-10T17:01:06.532Z,3.00
2019-05-10T17:03:33.195Z,2.73
2019-05-10T17:06:04.218Z,2.73
2019-05-10T17:08:30.813Z,3.27
2019-05-10T17:10:56.903Z,3.33
2019-05-10T17:13:23.578Z,2.97
2019-05-10T17:15:50.255Z,3.20
2019-05-10T17:18:19.699Z,3.70
2019-05-10T17:20:50.426Z,3.80
2019-05-10T17:23:14.128Z,3.70
2019-05-10T17:25:42.065Z,3.17
2019-05-10T17:28:09.085Z,3.37
2019-05-10T17:30:35.996Z,4.70
2019-05-10T17:33:03.923Z,4.27
2019-05-10T17:35:36.250Z,4.83
2019-05-10T17:38:00.478Z,3.60
2019-05-10T17:40:27.313Z,4.07
2019-05-10T17:42:54.142Z,3.80
2019-05-10T17:45:21.074Z,3.50
2019-05-10T17:47:47.732Z,4.07
2019-05-10T17:50:16.287Z,4.00
2019-05-10T17:52:43.611Z,3.83
2019-05-10T17:55:16.862Z,3.77
2019-05-10T17:57:40.284Z,3.97
2019-05-10T18:00:09.243Z,4.07
2019-05-10T18:02:36.491Z,3.77
2019-05-10T18:05:06.443Z,3.90
2019-05-10T18:07:32.984Z,3.90
2019-05-10T18:09:59.647Z,4.03
2019-05-10T18:12:27.329Z,4.20
2019-05-10T18:14:55.754Z,4.30
2019-05-10T18:17:25.838Z,4.73
2019-05-10T18:19:51.265Z,4.63
2019-05-10T18:22:18.041Z,5.80
2019-05-10T18:24:44.876Z,5.83
2019-05-10T18:27:11.521Z,6.63
2019-05-10T18:29:38.173Z,6.10
2019-05-10T18:32:05.241Z,5.10
2019-05-10T18:34:35.516Z,4.77
2019-05-10T18:37:02.619Z,3.90
2019-05-10T18:39:29.262Z,3.87
2019-05-10T18:41:55.978Z,3.67
2019-05-10T18:44:22.767Z,3.57
2019-05-10T18:46:49.613Z,3.57
2019-05-10T18:49:16.336Z,3.30
2019-05-10T18:51:43.048Z,3.13
2019-05-10T18:54:09.916Z,2.97
2019-05-10T18:56:36.562Z,3.10
2019-05-10T18:59:07.447Z,3.47
2019-05-10T19:01:33.009Z,2.73
2019-05-10T19:04:00.424Z,3.70
2019-05-10T19:06:27.101Z,3.30
2019-05-10T19:08:53.666Z,3.50
2019-05-10T19:11:20.381Z,3.50
2019-05-10T19:13:51.199Z,3.43
2019-05-10T19:16:15.917Z,3.90
2019-05-10T19:18:42.743Z,3.87
2019-05-10T19:21:09.518Z,4.40
2019-05-10T19:23:36.356Z,3.63
2019-05-10T19:26:03.195Z,4.23
2019-05-10T19:28:30.001Z,4.60
2019-05-10T19:30:58.870Z,3.80
2019-05-10T19:33:29.714Z,3.70
2019-05-10T19:35:53.906Z,4.47
2019-05-10T19:38:20.654Z,4.33
2019-05-10T19:40:47.336Z,4.50
2019-05-10T19:43:15.162Z,4.27
2019-05-10T19:45:42.425Z,4.60
2019-05-10T19:48:09.109Z,3.90
2019-05-10T19:50:35.912Z,4.20
2019-05-10T19:53:04.028Z,4.77
2019-05-10T19:55:31.490Z,5.20
2019-05-10T19:57:58.184Z,6.10
2019-05-10T20:00:25.002Z,6.00
2019-05-10T20:02:51.826Z,6.17
2019-05-10T20:05:18.834Z,5.27
2019-05-10T20:07:46.622Z,5.17
2019-05-10T20:10:14.172Z,5.33
2019-05-10T20:12:41.274Z,4.87
2019-05-10T20:15:08.364Z,4.97
2019-05-10T20:17:37.815Z,4.73
2019-05-10T20:20:06.396Z,5.03
2019-05-10T20:22:36.219Z,5.17
2019-05-10T20:25:02.575Z,5.30
2019-05-10T20:27:29.610Z,5.47
2019-05-10T20:29:56.277Z,5.80
2019-05-10T20:32:22.962Z,5.77
2019-05-10T20:34:49.947Z,5.83
2019-05-10T20:37:17.315Z,5.87
2019-05-10T20:39:44.090Z,6.67
2019-05-10T20:42:10.887Z,6.87
2019-05-10T20:44:37.685Z,6.93
2019-05-10T20:47:04.509Z,8.13
2019-05-10T20:49:31.059Z,7.43
2019-05-10T20:51:57.622Z,7.43
2019-05-10T20:54:24.394Z,6.60
2019-05-10T20:56:51.582Z,6.10
2019-05-10T20:59:18.148Z,5.97
2019-05-10T21:01:44.943Z,6.47
2019-05-10T21:04:11.645Z,6.43
2019-05-10T21:06:38.305Z,6.80
2019-05-10T21:09:05.626Z,8.00
2019-05-10T21:11:32.311Z,7.93
2019-05-10T21:13:59.214Z,8.37
2019-05-10T21:16:25.803Z,8.73
2019-05-10T21:18:52.466Z,7.70
2019-05-10T21:21:19.135Z,7.53
2019-05-10T21:23:46.002Z,8.23
2019-05-10T21:26:12.652Z,9.07
2019-05-10T21:28:39.269Z,8.93
2019-05-10T21:31:05.903Z,9.30
2019-05-10T21:33:33.327Z,8.77
2019-05-10T21:36:00.327Z,8.67
2019-05-10T21:38:32.928Z,8.87
2019-05-10T21:40:55.511Z,9.03
2019-05-10T21:43:22.183Z,8.90
2019-05-10T21:45:48.963Z,8.90
2019-05-10T21:48:15.438Z,9.07
2019-05-10T21:50:42.002Z,8.20
2019-05-10T21:53:08.467Z,7.97
2019-05-10T21:55:35.039Z,8.83
2019-05-10T21:58:01.564Z,9.37
2019-05-10T22:00:32.916Z,9.17
2019-05-10T22:02:59.670Z,9.07
2019-05-10T22:05:26.207Z,9.23
2019-05-10T22:07:52.803Z,9.27
2019-05-10T22:10:19.392Z,10.17
2019-05-10T22:12:46.017Z,9.83
2019-05-10T22:15:12.654Z,9.47
2019-05-10T22:17:39.164Z,7.33
2019-05-10T22:20:06.090Z,8.83
2019-05-10T22:22:32.735Z,9.43
2019-05-10T22:24:59.304Z,9.27
2019-05-10T22:27:25.672Z,9.77
2019-05-10T22:29:52.113Z,9.73
2019-05-10T22:32:18.543Z,9.10
2019-05-10T22:34:44.869Z,9.37
2019-05-10T22:37:11.330Z,8.33
2019-05-10T22:39:37.738Z,8.47
2019-05-10T22:42:04.482Z,9.47
2019-05-10T22:44:30.969Z,9.30
2019-05-10T22:46:57.388Z,10.53
2019-05-10T22:49:24.017Z,10.60
2019-05-10T22:51:50.492Z,12.40
2019-05-10T22:54:17.122Z,10.47
2019-05-10T22:56:43.531Z,10.67
2019-05-10T22:59:09.822Z,10.63
2019-05-10T23:01:36.386Z,10.80
2019-05-10T23:04:02.963Z,10.53
2019-05-10T23:06:29.410Z,11.10
2019-05-10T23:08:56.054Z,10.80
2019-05-10T23:11:22.482Z,12.27
2019-05-10T23:13:48.799Z,13.20
2019-05-10T23:16:15.323Z,11.77
2019-05-10T23:18:41.841Z,11.40
2019-05-10T23:21:08.605Z,10.70
2019-05-10T23:23:35.001Z,11.37
2019-05-10T23:26:01.497Z,11.73
2019-05-10T23:28:27.964Z,10.90
2019-05-10T23:30:54.362Z,10.63
2019-05-10T23:33:20.806Z,10.33
2019-05-10T23:35:47.214Z,10.60
2019-05-10T23:38:13.776Z,10.90
2019-05-10T23:40:40.288Z,11.10
2019-05-10T23:43:07.043Z,11.77
2019-05-10T23:45:33.740Z,10.23
2019-05-10T23:48:00.216Z,11.43
2019-05-10T23:50:26.629Z,10.50
2019-05-10T23:52:53.058Z,11.97
2019-05-10T23:55:19.482Z,12.87
2019-05-10T23:57:46.075Z,11.87
